createdAt,value
2022-10-05T04:16:52.636Z,0.40
2022-10-05T04:19:56.599Z,0.50
2022-10-05T04:22:30.411Z,0.50
2022-10-05T04:25:12.829Z,0.20
2022-10-05T04:27:45.566Z,0.30
2022-10-05T04:30:22.300Z,0.40
2022-10-05T04:32:57.398Z,0.30
2022-10-05T04:35:55.007Z,0.20
2022-10-05T04:38:36.906Z,0.30
2022-10-05T04:41:39.376Z,0.38
2022-10-05T04:44:40.401Z,0.40
2022-10-05T04:47:31.148Z,0.43
2022-10-05T04:50:32.447Z,0.40
2022-10-05T04:53:22.618Z,0.30
2022-10-05T04:55:58.460Z,0.50
2022-10-05T04:58:31.200Z,0.57
2022-10-05T05:01:13.314Z,0.68
2022-10-05T05:04:16.845Z,0.50
2022-10-05T05:06:51.271Z,0.60
2022-10-05T05:09:40.545Z,0.73
2022-10-05T05:12:25.507Z,0.65
2022-10-05T05:15:07.118Z,0.45
2022-10-05T05:17:47.603Z,0.52
2022-10-05T05:20:20.093Z,0.22
2022-10-05T05:23:22.407Z,0.30
2022-10-05T05:26:20.195Z,0.30
2022-10-05T05:29:06.685Z,0.25
2022-10-05T05:32:01.060Z,0.22
2022-10-05T05:35:16.900Z,0.20
2022-10-05T05:37:56.310Z,0.40
2022-10-05T05:40:34.825Z,0.20
2022-10-05T05:43:20.251Z,0.30
2022-10-05T05:46:00.687Z,0.20
2022-10-05T05:48:43.754Z,0.40
2022-10-05T05:51:34.338Z,0.20
2022-10-05T05:54:23.714Z,0.47
2022-10-05T05:57:09.106Z,0.40
2022-10-05T06:00:06.852Z,0.30
2022-10-05T06:03:17.060Z,0.30
2022-10-05T06:06:00.476Z,0.38
2022-10-05T06:08:52.105Z,0.35
2022-10-05T06:11:37.131Z,0.20
2022-10-05T06:14:25.024Z,0.20
2022-10-05T06:17:02.076Z,0.40
2022-10-05T06:19:32.296Z,0.38
2022-10-05T06:22:22.458Z,0.38
2022-10-05T06:24:58.963Z,0.25
2022-10-05T06:27:59.530Z,0.30
2022-10-05T06:31:05.921Z,0.17
2022-10-05T06:33:51.814Z,0.30
2022-10-05T06:36:37.164Z,0.30
2022-10-05T06:39:15.640Z,0.30
2022-10-05T06:41:52.894Z,0.70
2022-10-05T06:44:25.591Z,0.20
2022-10-05T07:49:43.200Z,0.70
2022-10-05T07:52:41.521Z,0.60
2022-10-05T07:55:41.119Z,1.13
2022-10-05T07:58:20.117Z,0.90
2022-10-05T08:00:59.530Z,0.90
2022-10-05T08:03:35.408Z,1.02
2022-10-05T08:06:05.721Z,0.60
2022-10-05T08:08:35.394Z,0.90
2022-10-05T08:11:17.628Z,0.60
2022-10-05T08:14:01.877Z,0.93
2022-10-05T08:16:35.626Z,0.70
2022-10-05T08:19:06.032Z,0.98
2022-10-05T08:21:45.345Z,0.80
2022-10-05T08:24:21.237Z,0.75
2022-10-05T08:27:10.515Z,1.00
2022-10-05T08:29:46.152Z,0.65
2022-10-05T08:32:21.197Z,0.70
2022-10-05T08:34:51.290Z,0.88
2022-10-05T08:37:27.429Z,0.80
2022-10-05T08:42:44.128Z,0.73
2022-10-05T08:45:48.556Z,0.80
2022-10-05T08:48:39.571Z,0.82
2022-10-05T08:51:12.193Z,0.93
2022-10-05T08:54:36.813Z,0.80
2022-10-05T08:57:29.012Z,0.47
2022-10-05T09:00:05.116Z,0.60
2022-10-05T09:05:31.911Z,0.47
2022-10-05T09:08:17.076Z,0.40
2022-10-05T09:11:11.397Z,0.43
2022-10-05T09:13:59.337Z,0.60
2022-10-05T09:16:48.078Z,0.70
2022-10-05T17:17:54.413Z,0.70
2022-10-05T17:20:42.694Z,0.45
2022-10-05T17:23:53.764Z,0.80
2022-10-05T17:27:05.134Z,0.90
2022-10-05T17:29:47.732Z,0.75
2022-10-05T17:32:17.467Z,0.73
2022-10-05T17:35:19.062Z,0.60
2022-10-05T17:38:14.534Z,0.55
2022-10-05T17:41:03.161Z,0.80
2022-10-05T17:43:31.494Z,0.50
2022-10-05T17:46:04.143Z,0.60
2022-10-05T17:48:48.861Z,0.73
2022-10-05T17:51:35.809Z,0.82
2022-10-05T17:55:09.621Z,0.60
2022-10-05T17:57:37.697Z,0.60
2022-10-05T18:00:14.465Z,0.52
2022-10-05T18:02:42.991Z,0.57
2022-10-05T18:05:12.161Z,0.55
2022-10-05T18:07:48.247Z,0.50
2022-10-05T18:13:02.743Z,0.80
2022-10-05T18:15:31.145Z,0.80
2022-10-05T18:18:32.933Z,0.47
2022-10-05T18:21:29.693Z,0.80
2022-10-05T18:23:59.529Z,1.17
2022-10-05T18:26:40.263Z,0.90
2022-10-05T18:29:53.100Z,0.82
2022-10-05T18:32:43.785Z,0.85
2022-10-05T18:35:26.598Z,1.00
2022-10-05T18:38:21.901Z,1.10
2022-10-05T18:41:29.195Z,1.13
2022-10-05T18:44:14.112Z,1.10
2022-10-05T18:46:46.884Z,0.90
2022-10-05T20:18:58.144Z,1.30
2022-10-05T20:21:44.842Z,1.27
2022-10-05T20:24:17.756Z,1.05
2022-10-05T20:27:02.731Z,0.80
2022-10-05T20:29:33.413Z,0.95
2022-10-05T20:32:00.477Z,1.15
2022-10-05T20:34:27.516Z,0.90
2022-10-05T20:36:54.395Z,1.00
2022-10-05T20:39:21.526Z,1.50
2022-10-05T20:41:48.453Z,1.00
2022-10-05T20:44:15.517Z,1.13
2022-10-05T20:46:42.489Z,1.00
2022-10-05T20:49:13.144Z,1.40
2022-10-05T20:51:40.323Z,0.80
2022-10-05T20:54:08.007Z,0.95
2022-10-05T20:56:35.092Z,0.73
2022-10-05T20:59:01.979Z,0.77
2022-10-05T21:01:30.441Z,0.90
2022-10-05T21:03:59.297Z,0.75
2022-10-05T21:06:28.179Z,0.80
2022-10-05T21:08:56.538Z,0.70
2022-10-05T21:11:23.465Z,1.00
2022-10-05T21:13:51.333Z,1.08
2022-10-05T21:16:19.740Z,0.70
2022-10-05T21:18:48.850Z,0.77
2022-10-05T21:21:17.515Z,0.70
2022-10-05T21:23:48.397Z,0.95
2022-10-05T21:26:16.621Z,1.00
2022-10-05T21:28:43.547Z,0.85
2022-10-05T21:31:10.700Z,0.52
2022-10-05T21:33:37.643Z,0.75
2022-10-05T21:36:04.827Z,0.73
2022-10-05T21:38:31.700Z,0.60
2022-10-05T21:40:58.660Z,0.70
2022-10-05T21:43:25.917Z,0.90
2022-10-05T21:45:55.252Z,0.60
2022-10-05T21:48:23.312Z,1.00
2022-10-05T21:50:50.181Z,0.90
2022-10-05T21:53:21.198Z,0.70
2022-10-05T21:55:50.123Z,0.50
2022-10-05T21:58:19.307Z,0.50
2022-10-05T22:00:49.688Z,0.80
2022-10-05T22:03:16.759Z,0.82
2022-10-05T22:05:43.784Z,0.80
2022-10-05T22:08:28.934Z,0.32
2022-10-05T22:10:56.672Z,0.45
2022-10-05T22:13:26.072Z,0.52
2022-10-05T22:15:55.414Z,0.70
2022-10-05T22:18:25.444Z,0.70
2022-10-05T22:20:55.860Z,0.32
2022-10-05T22:23:22.699Z,0.90
2022-10-05T22:25:49.714Z,0.85
2022-10-05T22:28:16.943Z,0.85
2022-10-05T22:30:45.309Z,0.65
2022-10-05T22:33:13.290Z,0.82
2022-10-05T22:35:40.461Z,1.10
2022-10-05T22:38:07.396Z,1.20
2022-10-05T22:40:34.339Z,0.80
2022-10-05T22:43:01.247Z,0.50
2022-10-05T22:45:32.419Z,0.60
2022-10-05T22:47:59.654Z,0.40
2022-10-05T22:50:26.478Z,0.80
2022-10-05T22:52:53.370Z,0.45
2022-10-05T22:55:20.187Z,0.80
2022-10-05T22:57:47.139Z,0.60
2022-10-05T23:00:14.254Z,0.70
2022-10-05T23:02:42.790Z,1.00
2022-10-05T23:05:13.271Z,0.60
2022-10-05T23:07:42.305Z,0.60
2022-10-05T23:10:14.792Z,0.70
2022-10-05T23:12:42.260Z,0.60
2022-10-05T23:15:10.120Z,0.50
2022-10-05T23:17:39.048Z,0.68
2022-10-05T23:20:07.946Z,0.80
2022-10-05T23:22:38.460Z,0.60
2022-10-05T23:25:06.907Z,0.98
2022-10-05T23:27:41.421Z,0.60
2022-10-05T23:30:10.115Z,0.93
2022-10-05T23:32:41.450Z,0.57
2022-10-05T23:35:10.544Z,0.80
2022-10-05T23:37:38.823Z,0.50
2022-10-05T23:40:07.770Z,0.50
2022-10-05T23:42:35.075Z,0.50
2022-10-05T23:45:02.298Z,0.60
2022-10-05T23:47:29.252Z,0.60
2022-10-05T23:49:56.099Z,0.40
2022-10-05T23:52:23.010Z,1.02
2022-10-05T23:54:49.812Z,0.50
2022-10-05T23:57:18.200Z,0.50
2022-10-05T23:59:45.189Z,0.70
